sensor_id;sensor_type;location;lat;lon;timestamp;P1;durP1;ratioP1;P2;durP2;ratioP2
23952;SDS011;12163;49.316;6.092;2022-12-28T00:01:32;16.38;;;9.77;;
23952;SDS011;12163;49.316;6.092;2022-12-28T00:04:00;14.85;;;8.70;;
23952;SDS011;12163;49.316;6.092;2022-12-28T00:06:28;11.35;;;6.30;;
23952;SDS011;12163;49.316;6.092;2022-12-28T00:08:57;17.88;;;8.93;;
23952;SDS011;12163;49.316;6.092;2022-12-28T00:11:25;13.50;;;6.70;;
23952;SDS011;12163;49.316;6.092;2022-12-28T00:13:57;11.68;;;6.50;;
23952;SDS011;12163;49.316;6.092;2022-12-28T00:18:54;10.70;;;5.38;;
23952;SDS011;12163;49.316;6.092;2022-12-28T00:21:22;11.68;;;5.40;;
23952;SDS011;12163;49.316;6.092;2022-12-28T00:23:50;9.95;;;5.00;;
23952;SDS011;12163;49.316;6.092;2022-12-28T00:26:22;11.63;;;4.88;;
23952;SDS011;12163;49.316;6.092;2022-12-28T00:28:49;8.32;;;4.05;;
23952;SDS011;12163;49.316;6.092;2022-12-28T00:31:16;13.70;;;4.68;;
23952;SDS011;12163;49.316;6.092;2022-12-28T00:33:42;11.60;;;4.63;;
23952;SDS011;12163;49.316;6.092;2022-12-28T00:36:10;6.90;;;3.85;;
23952;SDS011;12163;49.316;6.092;2022-12-28T00:38:37;6.78;;;4.18;;
23952;SDS011;12163;49.316;6.092;2022-12-28T00:41:05;8.48;;;3.90;;
23952;SDS011;12163;49.316;6.092;2022-12-28T00:43:32;14.27;;;4.10;;
23952;SDS011;12163;49.316;6.092;2022-12-28T00:45:59;8.05;;;4.03;;
23952;SDS011;12163;49.316;6.092;2022-12-28T00:48:26;8.93;;;3.78;;
23952;SDS011;12163;49.316;6.092;2022-12-28T00:50:59;12.68;;;3.72;;
23952;SDS011;12163;49.316;6.092;2022-12-28T00:53:30;8.82;;;3.80;;
23952;SDS011;12163;49.316;6.092;2022-12-28T00:56:07;11.20;;;3.90;;
23952;SDS011;12163;49.316;6.092;2022-12-28T00:58:35;6.95;;;3.47;;
23952;SDS011;12163;49.316;6.092;2022-12-28T01:01:02;12.80;;;3.90;;
23952;SDS011;12163;49.316;6.092;2022-12-28T01:03:30;8.63;;;3.78;;
23952;SDS011;12163;49.316;6.092;2022-12-28T01:05:57;9.35;;;3.22;;
23952;SDS011;12163;49.316;6.092;2022-12-28T01:08:23;9.00;;;4.22;;
23952;SDS011;12163;49.316;6.092;2022-12-28T01:10:50;12.73;;;3.80;;
23952;SDS011;12163;49.316;6.092;2022-12-28T01:13:16;7.63;;;3.50;;
23952;SDS011;12163;49.316;6.092;2022-12-28T01:15:43;7.43;;;3.30;;
23952;SDS011;12163;49.316;6.092;2022-12-28T01:18:10;8.70;;;3.58;;
23952;SDS011;12163;49.316;6.092;2022-12-28T01:20:38;6.15;;;3.00;;
23952;SDS011;12163;49.316;6.092;2022-12-28T01:23:05;9.32;;;3.72;;
23952;SDS011;12163;49.316;6.092;2022-12-28T01:25:32;6.53;;;3.53;;
23952;SDS011;12163;49.316;6.092;2022-12-28T01:27:59;5.97;;;3.22;;
23952;SDS011;12163;49.316;6.092;2022-12-28T01:30:26;6.75;;;3.10;;
23952;SDS011;12163;49.316;6.092;2022-12-28T01:32:52;4.57;;;3.10;;
23952;SDS011;12163;49.316;6.092;2022-12-28T01:35:19;10.77;;;3.83;;
23952;SDS011;12163;49.316;6.092;2022-12-28T01:37:46;9.90;;;3.20;;
23952;SDS011;12163;49.316;6.092;2022-12-28T01:40:13;6.97;;;3.40;;
23952;SDS011;12163;49.316;6.092;2022-12-28T01:42:40;7.95;;;2.83;;
23952;SDS011;12163;49.316;6.092;2022-12-28T01:45:12;11.07;;;3.90;;
23952;SDS011;12163;49.316;6.092;2022-12-28T01:47:42;8.60;;;3.03;;
23952;SDS011;12163;49.316;6.092;2022-12-28T01:50:16;10.68;;;3.40;;
23952;SDS011;12163;49.316;6.092;2022-12-28T01:52:57;7.20;;;2.90;;
23952;SDS011;12163;49.316;6.092;2022-12-28T01:55:29;8.48;;;3.08;;
23952;SDS011;12163;49.316;6.092;2022-12-28T01:58:03;8.27;;;3.33;;
23952;SDS011;12163;49.316;6.092;2022-12-28T02:00:36;7.32;;;3.30;;
23952;SDS011;12163;49.316;6.092;2022-12-28T02:03:06;9.02;;;3.47;;
23952;SDS011;12163;49.316;6.092;2022-12-28T02:05:37;8.70;;;2.90;;
23952;SDS011;12163;49.316;6.092;2022-12-28T02:10:38;7.80;;;2.80;;
23952;SDS011;12163;49.316;6.092;2022-12-28T02:13:12;11.07;;;3.20;;
23952;SDS011;12163;49.316;6.092;2022-12-28T02:15:40;11.73;;;3.00;;
23952;SDS011;12163;49.316;6.092;2022-12-28T02:18:07;7.15;;;2.75;;
23952;SDS011;12163;49.316;6.092;2022-12-28T02:20:50;5.28;;;2.40;;
23952;SDS011;12163;49.316;6.092;2022-12-28T02:34:32;10.15;;;2.92;;
23952;SDS011;12163;49.316;6.092;2022-12-28T02:37:18;9.15;;;3.00;;
23952;SDS011;12163;49.316;6.092;2022-12-28T02:39:51;11.18;;;2.67;;
23952;SDS011;12163;49.316;6.092;2022-12-28T02:42:21;7.57;;;3.10;;
23952;SDS011;12163;49.316;6.092;2022-12-28T02:44:50;8.13;;;2.65;;
23952;SDS011;12163;49.316;6.092;2022-12-28T02:47:39;8.18;;;2.65;;
23952;SDS011;12163;49.316;6.092;2022-12-28T02:50:44;5.20;;;2.25;;
23952;SDS011;12163;49.316;6.092;2022-12-28T02:59:16;8.45;;;2.20;;
23952;SDS011;12163;49.316;6.092;2022-12-28T03:07:20;7.63;;;2.20;;
23952;SDS011;12163;49.316;6.092;2022-12-28T03:10:16;7.20;;;2.33;;
23952;SDS011;12163;49.316;6.092;2022-12-28T03:15:17;8.55;;;2.10;;
23952;SDS011;12163;49.316;6.092;2022-12-28T03:21:07;6.20;;;1.80;;
23952;SDS011;12163;49.316;6.092;2022-12-28T03:23:54;6.80;;;2.22;;
23952;SDS011;12163;49.316;6.092;2022-12-28T03:26:42;5.90;;;2.28;;
23952;SDS011;12163;49.316;6.092;2022-12-28T03:29:32;7.32;;;1.83;;
23952;SDS011;12163;49.316;6.092;2022-12-28T03:32:22;4.15;;;1.90;;
23952;SDS011;12163;49.316;6.092;2022-12-28T03:34:50;9.85;;;3.00;;
23952;SDS011;12163;49.316;6.092;2022-12-28T03:37:19;5.50;;;2.13;;
23952;SDS011;12163;49.316;6.092;2022-12-28T03:42:46;9.10;;;1.90;;
23952;SDS011;12163;49.316;6.092;2022-12-28T03:46:17;6.28;;;1.98;;
23952;SDS011;12163;49.316;6.092;2022-12-28T03:48:30;8.95;;;2.00;;
23952;SDS011;12163;49.316;6.092;2022-12-28T03:50:59;7.55;;;2.08;;
23952;SDS011;12163;49.316;6.092;2022-12-28T03:53:28;6.15;;;2.03;;
23952;SDS011;12163;49.316;6.092;2022-12-28T03:56:09;4.45;;;2.15;;
23952;SDS011;12163;49.316;6.092;2022-12-28T03:58:36;11.13;;;2.15;;
23952;SDS011;12163;49.316;6.092;2022-12-28T04:01:03;8.55;;;1.95;;
23952;SDS011;12163;49.316;6.092;2022-12-28T04:03:30;8.95;;;2.10;;
23952;SDS011;12163;49.316;6.092;2022-12-28T04:05:57;7.07;;;2.08;;
23952;SDS011;12163;49.316;6.092;2022-12-28T04:08:24;4.75;;;1.83;;
23952;SDS011;12163;49.316;6.092;2022-12-28T04:10:51;4.55;;;1.83;;
23952;SDS011;12163;49.316;6.092;2022-12-28T04:13:18;10.15;;;2.00;;
23952;SDS011;12163;49.316;6.092;2022-12-28T04:16:07;9.30;;;2.30;;
23952;SDS011;12163;49.316;6.092;2022-12-28T04:18:33;6.68;;;2.20;;
23952;SDS011;12163;49.316;6.092;2022-12-28T04:21:00;7.72;;;1.90;;
23952;SDS011;12163;49.316;6.092;2022-12-28T04:23:27;5.95;;;1.85;;
23952;SDS011;12163;49.316;6.092;2022-12-28T04:26:02;10.43;;;2.30;;
23952;SDS011;12163;49.316;6.092;2022-12-28T04:28:31;8.35;;;2.15;;
23952;SDS011;12163;49.316;6.092;2022-12-28T04:30:59;9.40;;;2.40;;
23952;SDS011;12163;49.316;6.092;2022-12-28T04:33:27;10.93;;;2.15;;
23952;SDS011;12163;49.316;6.092;2022-12-28T04:36:02;4.90;;;1.95;;
23952;SDS011;12163;49.316;6.092;2022-12-28T04:38:29;6.95;;;2.05;;
23952;SDS011;12163;49.316;6.092;2022-12-28T04:40:56;5.82;;;1.55;;
23952;SDS011;12163;49.316;6.092;2022-12-28T04:43:22;8.13;;;2.35;;
23952;SDS011;12163;49.316;6.092;2022-12-28T04:45:59;5.95;;;1.80;;
23952;SDS011;12163;49.316;6.092;2022-12-28T04:48:30;8.95;;;2.20;;
23952;SDS011;12163;49.316;6.092;2022-12-28T04:50:57;4.55;;;1.70;;
23952;SDS011;12163;49.316;6.092;2022-12-28T04:53:23;9.15;;;2.30;;
23952;SDS011;12163;49.316;6.092;2022-12-28T04:55:50;6.53;;;1.90;;
23952;SDS011;12163;49.316;6.092;2022-12-28T04:58:16;6.88;;;2.20;;
23952;SDS011;12163;49.316;6.092;2022-12-28T05:00:43;7.30;;;1.85;;
23952;SDS011;12163;49.316;6.092;2022-12-28T05:03:10;3.53;;;1.60;;
23952;SDS011;12163;49.316;6.092;2022-12-28T05:05:37;4.55;;;1.58;;
23952;SDS011;12163;49.316;6.092;2022-12-28T05:08:04;5.43;;;1.80;;
23952;SDS011;12163;49.316;6.092;2022-12-28T05:10:31;7.40;;;2.00;;
23952;SDS011;12163;49.316;6.092;2022-12-28T05:12:58;9.40;;;1.70;;
23952;SDS011;12163;49.316;6.092;2022-12-28T05:15:24;8.07;;;1.80;;
23952;SDS011;12163;49.316;6.092;2022-12-28T05:17:51;5.25;;;1.77;;
23952;SDS011;12163;49.316;6.092;2022-12-28T05:20:19;6.32;;;1.52;;
23952;SDS011;12163;49.316;6.092;2022-12-28T05:22:46;8.80;;;1.77;;
23952;SDS011;12163;49.316;6.092;2022-12-28T05:25:13;6.28;;;1.67;;
23952;SDS011;12163;49.316;6.092;2022-12-28T05:27:39;5.18;;;2.05;;
23952;SDS011;12163;49.316;6.092;2022-12-28T05:30:06;8.38;;;2.42;;
23952;SDS011;12163;49.316;6.092;2022-12-28T05:32:33;6.20;;;1.90;;
23952;SDS011;12163;49.316;6.092;2022-12-28T05:35:00;6.65;;;1.98;;
23952;SDS011;12163;49.316;6.092;2022-12-28T05:37:26;6.80;;;2.22;;
23952;SDS011;12163;49.316;6.092;2022-12-28T05:39:53;9.68;;;1.80;;
23952;SDS011;12163;49.316;6.092;2022-12-28T05:42:20;10.27;;;2.03;;
23952;SDS011;12163;49.316;6.092;2022-12-28T05:44:46;7.10;;;1.83;;
23952;SDS011;12163;49.316;6.092;2022-12-28T05:47:13;6.97;;;1.80;;
23952;SDS011;12163;49.316;6.092;2022-12-28T05:49:39;8.02;;;1.80;;
23952;SDS011;12163;49.316;6.092;2022-12-28T05:52:06;3.78;;;1.30;;
23952;SDS011;12163;49.316;6.092;2022-12-28T05:54:32;10.23;;;1.90;;
23952;SDS011;12163;49.316;6.092;2022-12-28T05:56:59;4.72;;;1.95;;
23952;SDS011;12163;49.316;6.092;2022-12-28T05:59:25;5.03;;;1.40;;
23952;SDS011;12163;49.316;6.092;2022-12-28T06:01:52;3.78;;;1.58;;
23952;SDS011;12163;49.316;6.092;2022-12-28T06:04:19;6.80;;;1.80;;
23952;SDS011;12163;49.316;6.092;2022-12-28T06:06:46;2.67;;;1.55;;
23952;SDS011;12163;49.316;6.092;2022-12-28T06:09:14;6.47;;;1.48;;
23952;SDS011;12163;49.316;6.092;2022-12-28T06:11:41;4.40;;;1.63;;
23952;SDS011;12163;49.316;6.092;2022-12-28T06:14:07;4.70;;;1.80;;
23952;SDS011;12163;49.316;6.092;2022-12-28T06:16:35;5.38;;;1.75;;
23952;SDS011;12163;49.316;6.092;2022-12-28T06:19:05;8.02;;;1.83;;
23952;SDS011;12163;49.316;6.092;2022-12-28T06:21:35;7.47;;;2.35;;
23952;SDS011;12163;49.316;6.092;2022-12-28T06:24:03;7.75;;;1.60;;
23952;SDS011;12163;49.316;6.092;2022-12-28T06:26:32;4.57;;;1.60;;
23952;SDS011;12163;49.316;6.092;2022-12-28T06:29:00;6.93;;;1.88;;
23952;SDS011;12163;49.316;6.092;2022-12-28T06:31:31;3.85;;;1.52;;
23952;SDS011;12163;49.316;6.092;2022-12-28T06:34:00;5.65;;;1.50;;
23952;SDS011;12163;49.316;6.092;2022-12-28T06:36:38;8.63;;;1.75;;
23952;SDS011;12163;49.316;6.092;2022-12-28T06:39:07;4.43;;;1.60;;
23952;SDS011;12163;49.316;6.092;2022-12-28T06:41:36;6.68;;;1.70;;
23952;SDS011;12163;49.316;6.092;2022-12-28T06:44:09;8.80;;;1.70;;
23952;SDS011;12163;49.316;6.092;2022-12-28T06:46:39;5.80;;;1.90;;
23952;SDS011;12163;49.316;6.092;2022-12-28T06:49:06;10.68;;;2.00;;
23952;SDS011;12163;49.316;6.092;2022-12-28T06:51:34;7.00;;;2.10;;
23952;SDS011;12163;49.316;6.092;2022-12-28T06:54:06;4.15;;;1.95;;
23952;SDS011;12163;49.316;6.092;2022-12-28T06:56:33;7.65;;;1.75;;
23952;SDS011;12163;49.316;6.092;2022-12-28T06:59:01;7.30;;;1.70;;
23952;SDS011;12163;49.316;6.092;2022-12-28T07:01:36;7.15;;;1.73;;
23952;SDS011;12163;49.316;6.092;2022-12-28T07:04:05;8.75;;;1.70;;
23952;SDS011;12163;49.316;6.092;2022-12-28T07:06:35;4.22;;;1.50;;
23952;SDS011;12163;49.316;6.092;2022-12-28T07:09:06;5.82;;;1.40;;
23952;SDS011;12163;49.316;6.092;2022-12-28T07:11:35;6.20;;;1.45;;
23952;SDS011;12163;49.316;6.092;2022-12-28T07:14:02;5.57;;;1.50;;
23952;SDS011;12163;49.316;6.092;2022-12-28T07:16:29;5.65;;;1.63;;
23952;SDS011;12163;49.316;6.092;2022-12-28T07:18:56;9.32;;;1.70;;
23952;SDS011;12163;49.316;6.092;2022-12-28T07:21:26;8.02;;;1.98;;
23952;SDS011;12163;49.316;6.092;2022-12-28T07:23:58;7.60;;;1.80;;
23952;SDS011;12163;49.316;6.092;2022-12-28T07:26:27;9.18;;;2.28;;
23952;SDS011;12163;49.316;6.092;2022-12-28T07:28:55;5.43;;;1.52;;
23952;SDS011;12163;49.316;6.092;2022-12-28T07:31:27;6.25;;;1.80;;
23952;SDS011;12163;49.316;6.092;2022-12-28T07:33:56;4.85;;;1.80;;
23952;SDS011;12163;49.316;6.092;2022-12-28T07:36:25;7.43;;;1.75;;
23952;SDS011;12163;49.316;6.092;2022-12-28T07:38:53;4.97;;;1.58;;
23952;SDS011;12163;49.316;6.092;2022-12-28T07:41:23;4.22;;;1.67;;
23952;SDS011;12163;49.316;6.092;2022-12-28T07:43:51;7.05;;;1.70;;
23952;SDS011;12163;49.316;6.092;2022-12-28T07:46:22;6.60;;;1.50;;
23952;SDS011;12163;49.316;6.092;2022-12-28T07:48:51;11.45;;;2.00;;
23952;SDS011;12163;49.316;6.092;2022-12-28T07:53:49;8.40;;;2.13;;
23952;SDS011;12163;49.316;6.092;2022-12-28T07:56:17;5.40;;;2.75;;
23952;SDS011;12163;49.316;6.092;2022-12-28T07:58:50;6.20;;;1.83;;
23952;SDS011;12163;49.316;6.092;2022-12-28T08:01:19;8.35;;;1.60;;
23952;SDS011;12163;49.316;6.092;2022-12-28T08:03:47;5.05;;;1.52;;
23952;SDS011;12163;49.316;6.092;2022-12-28T08:06:17;8.95;;;2.20;;
23952;SDS011;12163;49.316;6.092;2022-12-28T08:08:46;9.20;;;2.03;;
23952;SDS011;12163;49.316;6.092;2022-12-28T08:11:15;8.30;;;2.00;;
23952;SDS011;12163;49.316;6.092;2022-12-28T08:13:45;5.35;;;1.80;;
23952;SDS011;12163;49.316;6.092;2022-12-28T08:16:14;6.45;;;1.85;;
23952;SDS011;12163;49.316;6.092;2022-12-28T08:18:46;4.75;;;1.60;;
23952;SDS011;12163;49.316;6.092;2022-12-28T08:21:14;5.93;;;1.85;;
23952;SDS011;12163;49.316;6.092;2022-12-28T08:24:02;6.90;;;1.67;;
23952;SDS011;12163;49.316;6.092;2022-12-28T08:26:30;6.18;;;2.00;;
23952;SDS011;12163;49.316;6.092;2022-12-28T08:29:00;6.20;;;1.52;;
23952;SDS011;12163;49.316;6.092;2022-12-28T08:31:30;4.60;;;1.80;;
23952;SDS011;12163;49.316;6.092;2022-12-28T08:33:59;5.70;;;1.60;;
23952;SDS011;12163;49.316;6.092;2022-12-28T08:36:28;5.55;;;1.67;;
23952;SDS011;12163;49.316;6.092;2022-12-28T08:38:54;5.97;;;1.52;;
23952;SDS011;12163;49.316;6.092;2022-12-28T08:41:24;4.70;;;1.95;;
23952;SDS011;12163;49.316;6.092;2022-12-28T08:43:52;4.88;;;2.13;;
23952;SDS011;12163;49.316;6.092;2022-12-28T08:46:20;5.97;;;1.88;;
23952;SDS011;12163;49.316;6.092;2022-12-28T08:48:49;7.45;;;2.22;;
23952;SDS011;12163;49.316;6.092;2022-12-28T08:51:18;7.40;;;2.15;;
23952;SDS011;12163;49.316;6.092;2022-12-28T08:53:46;4.78;;;1.90;;
23952;SDS011;12163;49.316;6.092;2022-12-28T08:56:15;7.78;;;2.17;;
23952;SDS011;12163;49.316;6.092;2022-12-28T08:58:43;6.15;;;2.42;;
23952;SDS011;12163;49.316;6.092;2022-12-28T09:01:12;5.53;;;2.10;;
23952;SDS011;12163;49.316;6.092;2022-12-28T09:03:51;4.15;;;1.85;;
23952;SDS011;12163;49.316;6.092;2022-12-28T09:06:21;4.43;;;1.77;;
23952;SDS011;12163;49.316;6.092;2022-12-28T09:09:06;9.20;;;2.20;;
23952;SDS011;12163;49.316;6.092;2022-12-28T09:11:37;2.75;;;1.75;;
23952;SDS011;12163;49.316;6.092;2022-12-28T09:14:06;6.45;;;2.20;;
23952;SDS011;12163;49.316;6.092;2022-12-28T09:16:34;4.88;;;2.22;;
23952;SDS011;12163;49.316;6.092;2022-12-28T09:19:02;7.50;;;1.90;;
23952;SDS011;12163;49.316;6.092;2022-12-28T09:21:31;5.85;;;2.42;;
23952;SDS011;12163;49.316;6.092;2022-12-28T09:24:00;6.75;;;2.28;;
23952;SDS011;12163;49.316;6.092;2022-12-28T09:26:27;6.55;;;2.88;;
23952;SDS011;12163;49.316;6.092;2022-12-28T09:28:57;4.57;;;2.05;;
23952;SDS011;12163;49.316;6.092;2022-12-28T09:31:27;6.35;;;2.00;;
23952;SDS011;12163;49.316;6.092;2022-12-28T09:33:55;5.43;;;2.00;;
23952;SDS011;12163;49.316;6.092;2022-12-28T09:36:48;4.13;;;1.92;;
23952;SDS011;12163;49.316;6.092;2022-12-28T09:39:15;7.30;;;1.90;;
23952;SDS011;12163;49.316;6.092;2022-12-28T09:47:02;7.00;;;2.47;;
23952;SDS011;12163;49.316;6.092;2022-12-28T09:49:44;7.28;;;2.33;;
23952;SDS011;12163;49.316;6.092;2022-12-28T09:52:23;6.85;;;2.40;;
23952;SDS011;12163;49.316;6.092;2022-12-28T09:54:53;6.78;;;3.10;;
23952;SDS011;12163;49.316;6.092;2022-12-28T09:57:20;7.20;;;2.60;;
23952;SDS011;12163;49.316;6.092;2022-12-28T09:59:49;6.63;;;2.13;;
23952;SDS011;12163;49.316;6.092;2022-12-28T10:02:25;7.38;;;2.72;;
23952;SDS011;12163;49.316;6.092;2022-12-28T10:04:56;7.43;;;2.80;;
23952;SDS011;12163;49.316;6.092;2022-12-28T10:07:23;8.18;;;2.40;;
23952;SDS011;12163;49.316;6.092;2022-12-28T10:09:50;6.80;;;2.70;;
23952;SDS011;12163;49.316;6.092;2022-12-28T10:12:21;6.45;;;2.45;;
23952;SDS011;12163;49.316;6.092;2022-12-28T10:14:49;6.13;;;2.83;;
23952;SDS011;12163;49.316;6.092;2022-12-28T10:17:19;5.30;;;2.88;;
23952;SDS011;12163;49.316;6.092;2022-12-28T10:19:53;4.57;;;2.35;;
23952;SDS011;12163;49.316;6.092;2022-12-28T10:22:23;6.75;;;2.53;;
23952;SDS011;12163;49.316;6.092;2022-12-28T10:24:53;4.90;;;2.10;;
23952;SDS011;12163;49.316;6.092;2022-12-28T10:27:21;14.10;;;2.88;;
23952;SDS011;12163;49.316;6.092;2022-12-28T10:29:50;6.10;;;2.60;;
23952;SDS011;12163;49.316;6.092;2022-12-28T10:32:17;6.93;;;2.65;;
23952;SDS011;12163;49.316;6.092;2022-12-28T10:37:22;7.90;;;2.78;;
23952;SDS011;12163;49.316;6.092;2022-12-28T10:39:58;8.68;;;2.85;;
23952;SDS011;12163;49.316;6.092;2022-12-28T10:42:38;7.30;;;2.38;;
23952;SDS011;12163;49.316;6.092;2022-12-28T10:45:23;6.30;;;1.98;;
23952;SDS011;12163;49.316;6.092;2022-12-28T10:47:52;7.97;;;1.98;;
23952;SDS011;12163;49.316;6.092;2022-12-28T10:50:37;6.10;;;2.05;;
23952;SDS011;12163;49.316;6.092;2022-12-28T10:58:40;4.97;;;1.83;;
23952;SDS011;12163;49.316;6.092;2022-12-28T11:03:42;8.10;;;3.13;;
23952;SDS011;12163;49.316;6.092;2022-12-28T11:06:20;6.80;;;2.70;;
23952;SDS011;12163;49.316;6.092;2022-12-28T11:11:38;8.60;;;2.95;;
23952;SDS011;12163;49.316;6.092;2022-12-28T11:14:10;7.13;;;2.28;;
23952;SDS011;12163;49.316;6.092;2022-12-28T11:19:45;4.80;;;1.70;;
23952;SDS011;12163;49.316;6.092;2022-12-28T11:22:16;4.80;;;2.25;;
23952;SDS011;12163;49.316;6.092;2022-12-28T11:24:52;6.00;;;2.35;;
23952;SDS011;12163;49.316;6.092;2022-12-28T11:27:21;7.57;;;2.30;;
23952;SDS011;12163;49.316;6.092;2022-12-28T11:29:49;4.95;;;1.95;;
23952;SDS011;12163;49.316;6.092;2022-12-28T11:32:22;3.72;;;2.30;;
23952;SDS011;12163;49.316;6.092;2022-12-28T11:34:55;4.35;;;2.10;;
23952;SDS011;12163;49.316;6.092;2022-12-28T11:37:23;7.38;;;2.00;;
23952;SDS011;12163;49.316;6.092;2022-12-28T11:39:50;5.50;;;2.00;;
23952;SDS011;12163;49.316;6.092;2022-12-28T11:45:13;18.50;;;11.38;;
23952;SDS011;12163;49.316;6.092;2022-12-28T11:47:41;5.05;;;2.40;;
23952;SDS011;12163;49.316;6.092;2022-12-28T11:53:02;4.28;;;1.77;;
23952;SDS011;12163;49.316;6.092;2022-12-28T11:55:46;5.95;;;2.08;;
23952;SDS011;12163;49.316;6.092;2022-12-28T12:00:56;4.43;;;1.80;;
23952;SDS011;12163;49.316;6.092;2022-12-28T12:11:49;5.03;;;1.70;;
23952;SDS011;12163;49.316;6.092;2022-12-28T12:14:49;5.70;;;2.10;;
23952;SDS011;12163;49.316;6.092;2022-12-28T12:17:25;10.27;;;2.45;;
23952;SDS011;12163;49.316;6.092;2022-12-28T12:20:19;2.22;;;1.30;;
23952;SDS011;12163;49.316;6.092;2022-12-28T12:22:47;6.47;;;1.85;;
23952;SDS011;12163;49.316;6.092;2022-12-28T12:25:38;8.18;;;4.70;;
23952;SDS011;12163;49.316;6.092;2022-12-28T12:28:12;3.45;;;1.42;;
23952;SDS011;12163;49.316;6.092;2022-12-28T12:30:52;4.32;;;1.63;;
23952;SDS011;12163;49.316;6.092;2022-12-28T12:33:27;6.63;;;1.77;;
23952;SDS011;12163;49.316;6.092;2022-12-28T12:41:47;4.20;;;1.88;;
23952;SDS011;12163;49.316;6.092;2022-12-28T12:44:31;2.88;;;1.50;;
23952;SDS011;12163;49.316;6.092;2022-12-28T12:55:14;2.80;;;1.17;;
23952;SDS011;12163;49.316;6.092;2022-12-28T13:00:41;3.33;;;1.88;;
23952;SDS011;12163;49.316;6.092;2022-12-28T13:03:15;6.15;;;1.90;;
23952;SDS011;12163;49.316;6.092;2022-12-28T13:05:56;1.90;;;1.30;;
23952;SDS011;12163;49.316;6.092;2022-12-28T13:11:28;5.20;;;1.55;;
23952;SDS011;12163;49.316;6.092;2022-12-28T13:13:56;3.95;;;1.58;;
23952;SDS011;12163;49.316;6.092;2022-12-28T13:16:23;3.85;;;1.30;;
23952;SDS011;12163;49.316;6.092;2022-12-28T13:18:53;2.35;;;1.40;;
23952;SDS011;12163;49.316;6.092;2022-12-28T13:21:26;3.78;;;1.30;;
23952;SDS011;12163;49.316;6.092;2022-12-28T13:23:54;1.75;;;1.10;;
23952;SDS011;12163;49.316;6.092;2022-12-28T13:26:26;2.83;;;1.45;;
23952;SDS011;12163;49.316;6.092;2022-12-28T13:31:27;2.53;;;1.50;;
23952;SDS011;12163;49.316;6.092;2022-12-28T13:34:02;3.25;;;1.30;;
23952;SDS011;12163;49.316;6.092;2022-12-28T13:36:31;2.08;;;1.15;;
23952;SDS011;12163;49.316;6.092;2022-12-28T13:38:58;2.17;;;1.30;;
23952;SDS011;12163;49.316;6.092;2022-12-28T13:41:37;5.85;;;1.73;;
23952;SDS011;12163;49.316;6.092;2022-12-28T13:55:03;2.70;;;1.60;;
23952;SDS011;12163;49.316;6.092;2022-12-28T13:57:35;2.45;;;1.50;;
23952;SDS011;12163;49.316;6.092;2022-12-28T14:00:18;3.03;;;1.45;;
23952;SDS011;12163;49.316;6.092;2022-12-28T14:05:16;3.60;;;1.35;;
23952;SDS011;12163;49.316;6.092;2022-12-28T14:07:47;2.85;;;1.23;;
23952;SDS011;12163;49.316;6.092;2022-12-28T14:10:15;1.67;;;1.20;;
23952;SDS011;12163;49.316;6.092;2022-12-28T14:12:43;2.03;;;1.30;;
23952;SDS011;12163;49.316;6.092;2022-12-28T14:15:11;3.08;;;1.75;;
23952;SDS011;12163;49.316;6.092;2022-12-28T14:17:38;4.97;;;1.50;;
23952;SDS011;12163;49.316;6.092;2022-12-28T14:20:06;6.35;;;1.80;;
23952;SDS011;12163;49.316;6.092;2022-12-28T14:22:35;4.07;;;1.80;;
23952;SDS011;12163;49.316;6.092;2022-12-28T14:27:34;3.25;;;1.20;;
23952;SDS011;12163;49.316;6.092;2022-12-28T14:30:04;5.63;;;1.58;;
23952;SDS011;12163;49.316;6.092;2022-12-28T14:32:33;3.75;;;1.55;;
23952;SDS011;12163;49.316;6.092;2022-12-28T14:35:13;2.17;;;1.33;;
23952;SDS011;12163;49.316;6.092;2022-12-28T14:37:44;2.88;;;1.60;;
23952;SDS011;12163;49.316;6.092;2022-12-28T14:40:33;2.33;;;1.40;;
23952;SDS011;12163;49.316;6.092;2022-12-28T14:43:06;3.63;;;1.30;;
23952;SDS011;12163;49.316;6.092;2022-12-28T14:45:46;3.00;;;2.17;;
23952;SDS011;12163;49.316;6.092;2022-12-28T14:48:36;7.88;;;1.35;;
23952;SDS011;12163;49.316;6.092;2022-12-28T14:53:43;2.00;;;1.40;;
23952;SDS011;12163;49.316;6.092;2022-12-28T14:56:17;4.47;;;1.70;;
23952;SDS011;12163;49.316;6.092;2022-12-28T15:01:38;3.80;;;1.50;;
23952;SDS011;12163;49.316;6.092;2022-12-28T15:07:02;5.03;;;1.55;;
23952;SDS011;12163;49.316;6.092;2022-12-28T15:09:30;4.07;;;1.58;;
23952;SDS011;12163;49.316;6.092;2022-12-28T15:12:13;2.05;;;1.27;;
23952;SDS011;12163;49.316;6.092;2022-12-28T15:14:41;2.78;;;1.30;;
23952;SDS011;12163;49.316;6.092;2022-12-28T15:17:08;2.00;;;1.40;;
23952;SDS011;12163;49.316;6.092;2022-12-28T15:19:35;3.40;;;1.40;;
23952;SDS011;12163;49.316;6.092;2022-12-28T15:22:01;3.90;;;1.60;;
23952;SDS011;12163;49.316;6.092;2022-12-28T15:24:28;3.67;;;2.25;;
23952;SDS011;12163;49.316;6.092;2022-12-28T15:26:59;2.95;;;2.00;;
23952;SDS011;12163;49.316;6.092;2022-12-28T15:29:26;3.22;;;1.90;;
23952;SDS011;12163;49.316;6.092;2022-12-28T15:32:13;2.25;;;1.40;;
23952;SDS011;12163;49.316;6.092;2022-12-28T15:34:39;2.80;;;1.70;;
23952;SDS011;12163;49.316;6.092;2022-12-28T15:37:06;2.65;;;1.23;;
23952;SDS011;12163;49.316;6.092;2022-12-28T15:39:33;3.20;;;1.50;;
23952;SDS011;12163;49.316;6.092;2022-12-28T15:42:00;2.78;;;1.30;;
23952;SDS011;12163;49.316;6.092;2022-12-28T15:44:26;3.70;;;1.73;;
23952;SDS011;12163;49.316;6.092;2022-12-28T15:46:53;8.50;;;4.28;;
23952;SDS011;12163;49.316;6.092;2022-12-28T15:49:20;7.65;;;3.60;;
23952;SDS011;12163;49.316;6.092;2022-12-28T15:51:46;5.85;;;3.22;;
23952;SDS011;12163;49.316;6.092;2022-12-28T15:54:13;6.20;;;4.22;;
23952;SDS011;12163;49.316;6.092;2022-12-28T15:56:40;11.05;;;7.25;;
23952;SDS011;12163;49.316;6.092;2022-12-28T15:59:11;3.38;;;1.75;;
23952;SDS011;12163;49.316;6.092;2022-12-28T16:01:40;4.10;;;1.52;;
23952;SDS011;12163;49.316;6.092;2022-12-28T16:04:09;6.90;;;2.17;;
23952;SDS011;12163;49.316;6.092;2022-12-28T16:06:36;5.05;;;3.53;;
23952;SDS011;12163;49.316;6.092;2022-12-28T16:09:10;5.03;;;2.47;;
23952;SDS011;12163;49.316;6.092;2022-12-28T16:11:37;10.13;;;6.45;;
23952;SDS011;12163;49.316;6.092;2022-12-28T16:14:06;4.68;;;3.00;;
23952;SDS011;12163;49.316;6.092;2022-12-28T16:16:38;4.63;;;2.17;;
23952;SDS011;12163;49.316;6.092;2022-12-28T16:19:05;2.35;;;1.30;;
23952;SDS011;12163;49.316;6.092;2022-12-28T16:21:34;4.13;;;1.40;;
23952;SDS011;12163;49.316;6.092;2022-12-28T16:24:01;5.43;;;1.70;;
23952;SDS011;12163;49.316;6.092;2022-12-28T16:26:28;5.45;;;2.28;;
23952;SDS011;12163;49.316;6.092;2022-12-28T16:28:54;3.97;;;1.95;;
23952;SDS011;12163;49.316;6.092;2022-12-28T16:31:26;4.65;;;2.05;;
23952;SDS011;12163;49.316;6.092;2022-12-28T16:33:54;2.95;;;1.08;;
23952;SDS011;12163;49.316;6.092;2022-12-28T16:36:24;3.90;;;1.90;;
23952;SDS011;12163;49.316;6.092;2022-12-28T16:38:52;4.25;;;1.17;;
23952;SDS011;12163;49.316;6.092;2022-12-28T16:41:19;3.72;;;1.40;;
23952;SDS011;12163;49.316;6.092;2022-12-28T16:43:47;3.38;;;1.60;;
23952;SDS011;12163;49.316;6.092;2022-12-28T16:46:14;3.47;;;2.00;;
23952;SDS011;12163;49.316;6.092;2022-12-28T16:48:42;4.57;;;2.67;;
23952;SDS011;12163;49.316;6.092;2022-12-28T16:51:08;4.72;;;2.35;;
23952;SDS011;12163;49.316;6.092;2022-12-28T16:53:35;4.32;;;1.65;;
23952;SDS011;12163;49.316;6.092;2022-12-28T16:56:03;4.18;;;2.00;;
23952;SDS011;12163;49.316;6.092;2022-12-28T16:58:31;6.03;;;1.90;;
23952;SDS011;12163;49.316;6.092;2022-12-28T17:01:02;3.63;;;2.20;;
23952;SDS011;12163;49.316;6.092;2022-12-28T17:03:33;4.05;;;2.15;;
23952;SDS011;12163;49.316;6.092;2022-12-28T17:06:01;8.65;;;2.50;;
23952;SDS011;12163;49.316;6.092;2022-12-28T17:08:27;4.50;;;2.00;;
23952;SDS011;12163;49.316;6.092;2022-12-28T17:10:54;3.53;;;2.10;;